sensor_id;sensor_type;location;lat;lon;timestamp;P1;durP1;ratioP1;P2;durP2;ratioP2
24273;SDS011;12392;42.678;23.380;2023-05-07T00:01:16;14.18;;;6.68;;
24273;SDS011;12392;42.678;23.380;2023-05-07T00:03:42;10.35;;;6.28;;
24273;SDS011;12392;42.678;23.380;2023-05-07T00:06:08;17.15;;;7.03;;
24273;SDS011;12392;42.678;23.380;2023-05-07T00:08:35;12.07;;;7.57;;
24273;SDS011;12392;42.678;23.380;2023-05-07T00:11:00;10.85;;;7.68;;
24273;SDS011;12392;42.678;23.380;2023-05-07T00:13:26;11.20;;;7.53;;
24273;SDS011;12392;42.678;23.380;2023-05-07T00:15:52;11.27;;;7.40;;
24273;SDS011;12392;42.678;23.380;2023-05-07T00:18:18;10.13;;;7.55;;
24273;SDS011;12392;42.678;23.380;2023-05-07T00:20:46;10.30;;;7.18;;
24273;SDS011;12392;42.678;23.380;2023-05-07T00:23:11;10.93;;;7.57;;
24273;SDS011;12392;42.678;23.380;2023-05-07T00:25:37;14.10;;;7.90;;
24273;SDS011;12392;42.678;23.380;2023-05-07T00:28:02;12.57;;;7.57;;
24273;SDS011;12392;42.678;23.380;2023-05-07T00:30:28;13.43;;;7.55;;
24273;SDS011;12392;42.678;23.380;2023-05-07T00:32:54;9.77;;;6.75;;
24273;SDS011;12392;42.678;23.380;2023-05-07T00:35:20;12.48;;;7.88;;
24273;SDS011;12392;42.678;23.380;2023-05-07T00:37:46;13.77;;;7.38;;
24273;SDS011;12392;42.678;23.380;2023-05-07T00:40:13;12.55;;;8.27;;
24273;SDS011;12392;42.678;23.380;2023-05-07T00:42:39;14.70;;;7.93;;
24273;SDS011;12392;42.678;23.380;2023-05-07T00:45:05;13.27;;;7.53;;
24273;SDS011;12392;42.678;23.380;2023-05-07T00:47:32;8.98;;;6.35;;
24273;SDS011;12392;42.678;23.380;2023-05-07T00:49:58;10.10;;;6.28;;
24273;SDS011;12392;42.678;23.380;2023-05-07T00:52:24;11.45;;;6.90;;
24273;SDS011;12392;42.678;23.380;2023-05-07T00:54:51;11.60;;;7.43;;
24273;SDS011;12392;42.678;23.380;2023-05-07T00:57:17;7.55;;;5.95;;
24273;SDS011;12392;42.678;23.380;2023-05-07T00:59:42;9.43;;;6.43;;
24273;SDS011;12392;42.678;23.380;2023-05-07T01:02:08;9.98;;;5.97;;
24273;SDS011;12392;42.678;23.380;2023-05-07T01:04:34;6.22;;;4.28;;
24273;SDS011;12392;42.678;23.380;2023-05-07T01:07:00;6.50;;;4.47;;
24273;SDS011;12392;42.678;23.380;2023-05-07T01:09:26;8.65;;;4.82;;
24273;SDS011;12392;42.678;23.380;2023-05-07T01:11:53;7.35;;;5.20;;
24273;SDS011;12392;42.678;23.380;2023-05-07T01:14:19;7.13;;;4.63;;
24273;SDS011;12392;42.678;23.380;2023-05-07T01:16:45;6.57;;;4.72;;
24273;SDS011;12392;42.678;23.380;2023-05-07T01:19:12;12.45;;;5.28;;
24273;SDS011;12392;42.678;23.380;2023-05-07T01:21:39;6.03;;;4.55;;
24273;SDS011;12392;42.678;23.380;2023-05-07T01:24:12;6.63;;;4.40;;
24273;SDS011;12392;42.678;23.380;2023-05-07T01:26:39;8.88;;;5.10;;
24273;SDS011;12392;42.678;23.380;2023-05-07T01:29:05;9.38;;;4.05;;
24273;SDS011;12392;42.678;23.380;2023-05-07T01:31:31;6.53;;;4.38;;
24273;SDS011;12392;42.678;23.380;2023-05-07T01:33:58;7.07;;;4.15;;
24273;SDS011;12392;42.678;23.380;2023-05-07T01:36:24;7.15;;;4.22;;
24273;SDS011;12392;42.678;23.380;2023-05-07T01:38:52;7.07;;;4.20;;
24273;SDS011;12392;42.678;23.380;2023-05-07T01:41:18;7.22;;;4.25;;
24273;SDS011;12392;42.678;23.380;2023-05-07T01:43:45;11.30;;;4.45;;
24273;SDS011;12392;42.678;23.380;2023-05-07T01:46:11;11.52;;;4.72;;
24273;SDS011;12392;42.678;23.380;2023-05-07T01:48:38;13.30;;;5.50;;
24273;SDS011;12392;42.678;23.380;2023-05-07T01:51:04;7.68;;;4.68;;
24273;SDS011;12392;42.678;23.380;2023-05-07T01:53:35;10.27;;;5.25;;
24273;SDS011;12392;42.678;23.380;2023-05-07T01:56:04;7.38;;;5.13;;
24273;SDS011;12392;42.678;23.380;2023-05-07T01:58:30;7.70;;;4.63;;
24273;SDS011;12392;42.678;23.380;2023-05-07T02:00:56;6.80;;;4.80;;
24273;SDS011;12392;42.678;23.380;2023-05-07T02:03:21;6.13;;;4.40;;
24273;SDS011;12392;42.678;23.380;2023-05-07T02:05:47;7.70;;;4.63;;
24273;SDS011;12392;42.678;23.380;2023-05-07T02:08:13;13.95;;;5.30;;
24273;SDS011;12392;42.678;23.380;2023-05-07T02:10:38;10.25;;;5.10;;
24273;SDS011;12392;42.678;23.380;2023-05-07T02:13:04;9.13;;;4.78;;
24273;SDS011;12392;42.678;23.380;2023-05-07T02:15:30;7.30;;;4.82;;
24273;SDS011;12392;42.678;23.380;2023-05-07T02:18:13;8.77;;;5.03;;
24273;SDS011;12392;42.678;23.380;2023-05-07T02:20:39;12.13;;;5.18;;
24273;SDS011;12392;42.678;23.380;2023-05-07T02:23:04;10.50;;;5.05;;
24273;SDS011;12392;42.678;23.380;2023-05-07T02:25:30;7.43;;;5.00;;
24273;SDS011;12392;42.678;23.380;2023-05-07T02:27:56;9.10;;;5.53;;
24273;SDS011;12392;42.678;23.380;2023-05-07T02:30:21;10.23;;;6.15;;
24273;SDS011;12392;42.678;23.380;2023-05-07T02:32:47;11.25;;;5.80;;
24273;SDS011;12392;42.678;23.380;2023-05-07T02:35:13;11.60;;;5.70;;
24273;SDS011;12392;42.678;23.380;2023-05-07T02:37:38;8.88;;;6.05;;
24273;SDS011;12392;42.678;23.380;2023-05-07T02:40:04;9.23;;;6.20;;
24273;SDS011;12392;42.678;23.380;2023-05-07T02:42:30;10.10;;;6.88;;
24273;SDS011;12392;42.678;23.380;2023-05-07T02:44:56;8.57;;;6.35;;
24273;SDS011;12392;42.678;23.380;2023-05-07T02:47:22;11.35;;;6.85;;
24273;SDS011;12392;42.678;23.380;2023-05-07T02:49:47;10.27;;;7.43;;
24273;SDS011;12392;42.678;23.380;2023-05-07T02:52:13;12.30;;;7.00;;
24273;SDS011;12392;42.678;23.380;2023-05-07T02:54:38;12.68;;;7.28;;
24273;SDS011;12392;42.678;23.380;2023-05-07T02:57:04;11.07;;;6.80;;
24273;SDS011;12392;42.678;23.380;2023-05-07T02:59:30;13.18;;;7.28;;
24273;SDS011;12392;42.678;23.380;2023-05-07T03:01:56;12.07;;;7.95;;
24273;SDS011;12392;42.678;23.380;2023-05-07T03:04:21;11.15;;;6.75;;
24273;SDS011;12392;42.678;23.380;2023-05-07T03:06:47;12.50;;;7.00;;
24273;SDS011;12392;42.678;23.380;2023-05-07T03:09:12;11.57;;;7.72;;
24273;SDS011;12392;42.678;23.380;2023-05-07T03:11:38;12.57;;;7.70;;
24273;SDS011;12392;42.678;23.380;2023-05-07T03:14:04;13.60;;;7.55;;
24273;SDS011;12392;42.678;23.380;2023-05-07T03:16:29;10.73;;;8.07;;
24273;SDS011;12392;42.678;23.380;2023-05-07T03:18:55;9.88;;;8.23;;
24273;SDS011;12392;42.678;23.380;2023-05-07T03:21:21;10.68;;;7.90;;
24273;SDS011;12392;42.678;23.380;2023-05-07T03:23:46;11.45;;;8.30;;
24273;SDS011;12392;42.678;23.380;2023-05-07T03:26:12;17.67;;;9.13;;
24273;SDS011;12392;42.678;23.380;2023-05-07T03:28:37;12.85;;;8.60;;
24273;SDS011;12392;42.678;23.380;2023-05-07T03:31:03;13.20;;;8.55;;
24273;SDS011;12392;42.678;23.380;2023-05-07T03:33:30;16.25;;;8.75;;
24273;SDS011;12392;42.678;23.380;2023-05-07T03:35:58;10.80;;;8.15;;
24273;SDS011;12392;42.678;23.380;2023-05-07T03:38:23;12.90;;;9.02;;
24273;SDS011;12392;42.678;23.380;2023-05-07T03:40:49;11.38;;;8.65;;
24273;SDS011;12392;42.678;23.380;2023-05-07T03:43:14;12.27;;;8.43;;
24273;SDS011;12392;42.678;23.380;2023-05-07T03:45:40;12.27;;;8.43;;
24273;SDS011;12392;42.678;23.380;2023-05-07T03:48:06;15.82;;;8.32;;
24273;SDS011;12392;42.678;23.380;2023-05-07T03:50:32;14.40;;;9.13;;
24273;SDS011;12392;42.678;23.380;2023-05-07T03:52:58;13.52;;;8.40;;
24273;SDS011;12392;42.678;23.380;2023-05-07T03:55:23;12.63;;;8.45;;
24273;SDS011;12392;42.678;23.380;2023-05-07T03:57:49;10.40;;;8.05;;
24273;SDS011;12392;42.678;23.380;2023-05-07T04:00:15;12.63;;;9.10;;
24273;SDS011;12392;42.678;23.380;2023-05-07T04:02:41;14.00;;;9.05;;
24273;SDS011;12392;42.678;23.380;2023-05-07T04:05:07;12.75;;;8.82;;
24273;SDS011;12392;42.678;23.380;2023-05-07T04:07:33;11.75;;;8.02;;
24273;SDS011;12392;42.678;23.380;2023-05-07T04:09:58;14.48;;;8.38;;
24273;SDS011;12392;42.678;23.380;2023-05-07T04:12:24;13.18;;;7.38;;
24273;SDS011;12392;42.678;23.380;2023-05-07T04:14:50;9.93;;;6.85;;
24273;SDS011;12392;42.678;23.380;2023-05-07T04:17:15;8.25;;;6.28;;
24273;SDS011;12392;42.678;23.380;2023-05-07T04:19:41;9.90;;;5.80;;
24273;SDS011;12392;42.678;23.380;2023-05-07T04:22:10;11.60;;;6.75;;
24273;SDS011;12392;42.678;23.380;2023-05-07T04:24:36;9.90;;;6.50;;
24273;SDS011;12392;42.678;23.380;2023-05-07T04:27:02;10.00;;;6.47;;
24273;SDS011;12392;42.678;23.380;2023-05-07T04:29:28;7.80;;;6.55;;
24273;SDS011;12392;42.678;23.380;2023-05-07T04:31:54;8.05;;;6.40;;
24273;SDS011;12392;42.678;23.380;2023-05-07T04:34:21;9.50;;;6.13;;
24273;SDS011;12392;42.678;23.380;2023-05-07T04:36:47;9.35;;;7.07;;
24273;SDS011;12392;42.678;23.380;2023-05-07T04:39:13;10.85;;;6.82;;
24273;SDS011;12392;42.678;23.380;2023-05-07T04:41:38;11.32;;;7.13;;
24273;SDS011;12392;42.678;23.380;2023-05-07T04:44:04;13.68;;;7.68;;
24273;SDS011;12392;42.678;23.380;2023-05-07T04:46:30;8.52;;;7.07;;
24273;SDS011;12392;42.678;23.380;2023-05-07T04:48:56;12.38;;;7.22;;
24273;SDS011;12392;42.678;23.380;2023-05-07T04:51:22;10.70;;;7.55;;
24273;SDS011;12392;42.678;23.380;2023-05-07T04:53:48;10.77;;;7.22;;
24273;SDS011;12392;42.678;23.380;2023-05-07T04:56:14;8.68;;;7.00;;
24273;SDS011;12392;42.678;23.380;2023-05-07T04:58:39;10.02;;;7.28;;
24273;SDS011;12392;42.678;23.380;2023-05-07T05:01:05;9.43;;;7.40;;
24273;SDS011;12392;42.678;23.380;2023-05-07T05:03:31;7.88;;;6.65;;
24273;SDS011;12392;42.678;23.380;2023-05-07T05:05:57;11.63;;;6.88;;
24273;SDS011;12392;42.678;23.380;2023-05-07T05:08:24;9.82;;;7.10;;
24273;SDS011;12392;42.678;23.380;2023-05-07T05:10:50;11.18;;;6.60;;
24273;SDS011;12392;42.678;23.380;2023-05-07T05:13:16;9.48;;;7.20;;
24273;SDS011;12392;42.678;23.380;2023-05-07T05:15:42;10.13;;;7.10;;
24273;SDS011;12392;42.678;23.380;2023-05-07T05:18:07;11.07;;;7.22;;
24273;SDS011;12392;42.678;23.380;2023-05-07T05:20:33;8.20;;;6.28;;
24273;SDS011;12392;42.678;23.380;2023-05-07T05:22:58;9.68;;;6.57;;
24273;SDS011;12392;42.678;23.380;2023-05-07T05:25:24;9.35;;;6.82;;
24273;SDS011;12392;42.678;23.380;2023-05-07T05:27:50;12.45;;;7.28;;
24273;SDS011;12392;42.678;23.380;2023-05-07T05:30:15;9.18;;;6.93;;
24273;SDS011;12392;42.678;23.380;2023-05-07T05:32:41;8.90;;;6.25;;
24273;SDS011;12392;42.678;23.380;2023-05-07T05:35:07;8.77;;;6.53;;
24273;SDS011;12392;42.678;23.380;2023-05-07T05:37:33;9.93;;;7.18;;
24273;SDS011;12392;42.678;23.380;2023-05-07T05:39:59;9.52;;;7.18;;
24273;SDS011;12392;42.678;23.380;2023-05-07T05:42:24;14.52;;;6.90;;
24273;SDS011;12392;42.678;23.380;2023-05-07T05:44:50;12.40;;;6.95;;
24273;SDS011;12392;42.678;23.380;2023-05-07T05:47:16;10.77;;;6.80;;
24273;SDS011;12392;42.678;23.380;2023-05-07T05:49:41;11.05;;;6.80;;
24273;SDS011;12392;42.678;23.380;2023-05-07T05:52:08;10.55;;;7.05;;
24273;SDS011;12392;42.678;23.380;2023-05-07T05:54:34;9.43;;;7.13;;
24273;SDS011;12392;42.678;23.380;2023-05-07T05:57:00;11.77;;;7.22;;
24273;SDS011;12392;42.678;23.380;2023-05-07T05:59:29;10.05;;;7.07;;
24273;SDS011;12392;42.678;23.380;2023-05-07T06:01:54;9.82;;;6.65;;
24273;SDS011;12392;42.678;23.380;2023-05-07T06:04:20;9.50;;;7.05;;
24273;SDS011;12392;42.678;23.380;2023-05-07T06:06:46;9.77;;;6.53;;
24273;SDS011;12392;42.678;23.380;2023-05-07T06:09:11;10.45;;;7.00;;
24273;SDS011;12392;42.678;23.380;2023-05-07T06:11:37;8.82;;;6.70;;
24273;SDS011;12392;42.678;23.380;2023-05-07T06:14:03;8.40;;;6.93;;
24273;SDS011;12392;42.678;23.380;2023-05-07T06:16:28;11.55;;;7.03;;
24273;SDS011;12392;42.678;23.380;2023-05-07T06:18:54;11.93;;;6.93;;
24273;SDS011;12392;42.678;23.380;2023-05-07T06:21:20;9.30;;;6.57;;
24273;SDS011;12392;42.678;23.380;2023-05-07T06:23:46;11.05;;;7.38;;
24273;SDS011;12392;42.678;23.380;2023-05-07T06:26:11;8.98;;;6.63;;
24273;SDS011;12392;42.678;23.380;2023-05-07T06:28:37;12.93;;;7.40;;
24273;SDS011;12392;42.678;23.380;2023-05-07T06:31:13;14.98;;;7.47;;
24273;SDS011;12392;42.678;23.380;2023-05-07T06:33:39;12.45;;;5.97;;
24273;SDS011;12392;42.678;23.380;2023-05-07T06:36:05;12.43;;;6.63;;
24273;SDS011;12392;42.678;23.380;2023-05-07T06:38:31;8.43;;;6.40;;
24273;SDS011;12392;42.678;23.380;2023-05-07T06:40:57;13.02;;;7.65;;
24273;SDS011;12392;42.678;23.380;2023-05-07T06:43:22;10.60;;;7.45;;
24273;SDS011;12392;42.678;23.380;2023-05-07T06:45:48;9.15;;;7.53;;
24273;SDS011;12392;42.678;23.380;2023-05-07T06:48:14;11.30;;;7.72;;
24273;SDS011;12392;42.678;23.380;2023-05-07T06:50:39;14.60;;;7.68;;
24273;SDS011;12392;42.678;23.380;2023-05-07T06:53:06;12.98;;;7.40;;
24273;SDS011;12392;42.678;23.380;2023-05-07T06:55:32;9.95;;;7.20;;
24273;SDS011;12392;42.678;23.380;2023-05-07T06:57:57;13.30;;;7.50;;
24273;SDS011;12392;42.678;23.380;2023-05-07T07:00:28;12.35;;;6.90;;
24273;SDS011;12392;42.678;23.380;2023-05-07T07:02:54;9.15;;;6.72;;
24273;SDS011;12392;42.678;23.380;2023-05-07T07:05:20;8.07;;;6.50;;
24273;SDS011;12392;42.678;23.380;2023-05-07T07:07:46;14.13;;;7.47;;
24273;SDS011;12392;42.678;23.380;2023-05-07T07:10:20;11.98;;;7.30;;
24273;SDS011;12392;42.678;23.380;2023-05-07T07:12:46;10.50;;;7.30;;
24273;SDS011;12392;42.678;23.380;2023-05-07T07:15:13;7.50;;;6.57;;
24273;SDS011;12392;42.678;23.380;2023-05-07T07:17:38;9.32;;;6.97;;
24273;SDS011;12392;42.678;23.380;2023-05-07T07:20:04;12.07;;;6.88;;
24273;SDS011;12392;42.678;23.380;2023-05-07T07:22:30;10.38;;;7.50;;
24273;SDS011;12392;42.678;23.380;2023-05-07T07:24:56;13.73;;;8.23;;
24273;SDS011;12392;42.678;23.380;2023-05-07T07:27:22;11.45;;;7.88;;
24273;SDS011;12392;42.678;23.380;2023-05-07T07:29:47;10.23;;;7.70;;
24273;SDS011;12392;42.678;23.380;2023-05-07T07:32:13;13.45;;;8.15;;
24273;SDS011;12392;42.678;23.380;2023-05-07T07:34:39;10.98;;;7.40;;
24273;SDS011;12392;42.678;23.380;2023-05-07T07:37:04;11.55;;;7.30;;
24273;SDS011;12392;42.678;23.380;2023-05-07T07:39:31;10.75;;;8.38;;
24273;SDS011;12392;42.678;23.380;2023-05-07T07:41:57;14.38;;;9.63;;
24273;SDS011;12392;42.678;23.380;2023-05-07T07:44:23;12.95;;;7.78;;
24273;SDS011;12392;42.678;23.380;2023-05-07T07:46:48;14.15;;;8.98;;
24273;SDS011;12392;42.678;23.380;2023-05-07T07:49:15;12.82;;;8.73;;
24273;SDS011;12392;42.678;23.380;2023-05-07T07:51:41;11.10;;;8.38;;
24273;SDS011;12392;42.678;23.380;2023-05-07T07:54:07;10.45;;;7.30;;
24273;SDS011;12392;42.678;23.380;2023-05-07T07:56:32;11.60;;;8.30;;
24273;SDS011;12392;42.678;23.380;2023-05-07T07:59:01;12.20;;;8.48;;
24273;SDS011;12392;42.678;23.380;2023-05-07T08:01:29;11.00;;;8.27;;
24273;SDS011;12392;42.678;23.380;2023-05-07T08:03:55;8.77;;;7.68;;
24273;SDS011;12392;42.678;23.380;2023-05-07T08:06:22;13.73;;;9.15;;
24273;SDS011;12392;42.678;23.380;2023-05-07T08:08:48;12.55;;;8.00;;
24273;SDS011;12392;42.678;23.380;2023-05-07T08:11:14;11.30;;;6.65;;
24273;SDS011;12392;42.678;23.380;2023-05-07T08:13:40;9.80;;;7.30;;
24273;SDS011;12392;42.678;23.380;2023-05-07T08:16:05;10.57;;;7.20;;
24273;SDS011;12392;42.678;23.380;2023-05-07T08:18:31;10.32;;;7.50;;
24273;SDS011;12392;42.678;23.380;2023-05-07T08:20:57;13.00;;;7.00;;
24273;SDS011;12392;42.678;23.380;2023-05-07T08:23:22;9.18;;;6.40;;
24273;SDS011;12392;42.678;23.380;2023-05-07T08:25:49;12.27;;;6.78;;
24273;SDS011;12392;42.678;23.380;2023-05-07T08:28:15;9.85;;;6.97;;
24273;SDS011;12392;42.678;23.380;2023-05-07T08:30:40;9.57;;;7.07;;
24273;SDS011;12392;42.678;23.380;2023-05-07T08:33:08;17.38;;;6.95;;
24273;SDS011;12392;42.678;23.380;2023-05-07T08:35:34;11.90;;;5.68;;
24273;SDS011;12392;42.678;23.380;2023-05-07T08:37:59;14.05;;;6.57;;
24273;SDS011;12392;42.678;23.380;2023-05-07T08:40:26;10.80;;;7.30;;
24273;SDS011;12392;42.678;23.380;2023-05-07T08:42:54;9.50;;;6.63;;
24273;SDS011;12392;42.678;23.380;2023-05-07T08:45:21;12.63;;;6.35;;
24273;SDS011;12392;42.678;23.380;2023-05-07T08:47:50;8.80;;;6.00;;
24273;SDS011;12392;42.678;23.380;2023-05-07T08:50:18;12.68;;;7.00;;
24273;SDS011;12392;42.678;23.380;2023-05-07T08:52:44;9.48;;;6.45;;
24273;SDS011;12392;42.678;23.380;2023-05-07T08:55:10;7.55;;;4.57;;
24273;SDS011;12392;42.678;23.380;2023-05-07T08:57:36;8.52;;;5.00;;
24273;SDS011;12392;42.678;23.380;2023-05-07T09:00:03;5.72;;;4.72;;
24273;SDS011;12392;42.678;23.380;2023-05-07T09:02:29;5.15;;;4.28;;
24273;SDS011;12392;42.678;23.380;2023-05-07T09:04:55;6.88;;;4.03;;
24273;SDS011;12392;42.678;23.380;2023-05-07T09:07:20;6.75;;;4.65;;
24273;SDS011;12392;42.678;23.380;2023-05-07T09:09:46;8.13;;;4.53;;
24273;SDS011;12392;42.678;23.380;2023-05-07T09:12:12;6.90;;;4.47;;
24273;SDS011;12392;42.678;23.380;2023-05-07T09:14:38;6.53;;;4.30;;
24273;SDS011;12392;42.678;23.380;2023-05-07T09:17:04;9.50;;;4.40;;
24273;SDS011;12392;42.678;23.380;2023-05-07T09:19:30;6.38;;;3.47;;
24273;SDS011;12392;42.678;23.380;2023-05-07T09:22:01;6.05;;;3.58;;
24273;SDS011;12392;42.678;23.380;2023-05-07T09:24:28;4.43;;;3.30;;
24273;SDS011;12392;42.678;23.380;2023-05-07T09:26:58;4.80;;;3.33;;
24273;SDS011;12392;42.678;23.380;2023-05-07T09:29:25;5.22;;;3.63;;
24273;SDS011;12392;42.678;23.380;2023-05-07T09:31:51;4.95;;;3.60;;
24273;SDS011;12392;42.678;23.380;2023-05-07T09:34:16;5.95;;;3.60;;
24273;SDS011;12392;42.678;23.380;2023-05-07T09:36:42;3.72;;;3.20;;
24273;SDS011;12392;42.678;23.380;2023-05-07T09:39:08;5.65;;;3.03;;
24273;SDS011;12392;42.678;23.380;2023-05-07T09:41:33;10.63;;;3.58;;
24273;SDS011;12392;42.678;23.380;2023-05-07T09:44:09;5.18;;;3.28;;
24273;SDS011;12392;42.678;23.380;2023-05-07T09:46:34;5.55;;;3.10;;
24273;SDS011;12392;42.678;23.380;2023-05-07T09:49:02;5.10;;;3.78;;
24273;SDS011;12392;42.678;23.380;2023-05-07T09:51:34;5.00;;;3.42;;
24273;SDS011;12392;42.678;23.380;2023-05-07T09:54:05;4.15;;;2.75;;
24273;SDS011;12392;42.678;23.380;2023-05-07T09:56:32;6.47;;;3.38;;
24273;SDS011;12392;42.678;23.380;2023-05-07T09:59:01;3.30;;;2.95;;
24273;SDS011;12392;42.678;23.380;2023-05-07T10:01:29;5.90;;;3.40;;
24273;SDS011;12392;42.678;23.380;2023-05-07T10:03:56;5.35;;;3.28;;
24273;SDS011;12392;42.678;23.380;2023-05-07T10:06:23;2.60;;;2.40;;
24273;SDS011;12392;42.678;23.380;2023-05-07T10:08:51;3.22;;;2.92;;
24273;SDS011;12392;42.678;23.380;2023-05-07T10:11:17;6.60;;;3.25;;
24273;SDS011;12392;42.678;23.380;2023-05-07T10:13:43;5.13;;;2.70;;
24273;SDS011;12392;42.678;23.380;2023-05-07T10:16:08;4.10;;;1.98;;
24273;SDS011;12392;42.678;23.380;2023-05-07T10:18:34;3.55;;;2.25;;
24273;SDS011;12392;42.678;23.380;2023-05-07T10:21:22;6.43;;;2.63;;
24273;SDS011;12392;42.678;23.380;2023-05-07T10:23:50;3.03;;;2.20;;
24273;SDS011;12392;42.678;23.380;2023-05-07T10:26:19;4.07;;;2.58;;
24273;SDS011;12392;42.678;23.380;2023-05-07T10:28:46;3.22;;;2.30;;
24273;SDS011;12392;42.678;23.380;2023-05-07T10:31:36;4.43;;;2.00;;
24273;SDS011;12392;42.678;23.380;2023-05-07T10:34:15;2.92;;;2.00;;
24273;SDS011;12392;42.678;23.380;2023-05-07T10:36:43;3.15;;;2.47;;
24273;SDS011;12392;42.678;23.380;2023-05-07T10:39:09;3.80;;;2.80;;
24273;SDS011;12392;42.678;23.380;2023-05-07T10:41:35;4.65;;;2.55;;
24273;SDS011;12392;42.678;23.380;2023-05-07T10:44:02;2.92;;;2.42;;
24273;SDS011;12392;42.678;23.380;2023-05-07T10:46:27;2.85;;;2.30;;
24273;SDS011;12392;42.678;23.380;2023-05-07T10:51:30;2.78;;;2.13;;
24273;SDS011;12392;42.678;23.380;2023-05-07T10:56:35;4.88;;;2.22;;
24273;SDS011;12392;42.678;23.380;2023-05-07T11:01:56;3.25;;;2.42;;
24273;SDS011;12392;42.678;23.380;2023-05-07T11:04:23;3.85;;;2.47;;
24273;SDS011;12392;42.678;23.380;2023-05-07T11:12:16;6.20;;;2.65;;
24273;SDS011;12392;42.678;23.380;2023-05-07T11:17:09;4.50;;;2.70;;
24273;SDS011;12392;42.678;23.380;2023-05-07T11:25:00;3.47;;;2.67;;
24273;SDS011;12392;42.678;23.380;2023-05-07T11:27:30;4.18;;;2.92;;
24273;SDS011;12392;42.678;23.380;2023-05-07T11:29:56;3.28;;;2.72;;
24273;SDS011;12392;42.678;23.380;2023-05-07T11:32:26;3.25;;;2.67;;
24273;SDS011;12392;42.678;23.380;2023-05-07T11:34:53;4.10;;;2.20;;
24273;SDS011;12392;42.678;23.380;2023-05-07T11:37:23;3.80;;;2.40;;
24273;SDS011;12392;42.678;23.380;2023-05-07T11:39:49;5.18;;;2.75;;
24273;SDS011;12392;42.678;23.380;2023-05-07T11:42:34;3.10;;;2.80;;
24273;SDS011;12392;42.678;23.380;2023-05-07T11:45:02;3.80;;;2.88;;
24273;SDS011;12392;42.678;23.380;2023-05-07T11:47:32;4.97;;;2.97;;
24273;SDS011;12392;42.678;23.380;2023-05-07T11:50:02;6.63;;;3.70;;
24273;SDS011;12392;42.678;23.380;2023-05-07T11:52:32;5.97;;;2.75;;
24273;SDS011;12392;42.678;23.380;2023-05-07T11:54:58;3.75;;;2.63;;
24273;SDS011;12392;42.678;23.380;2023-05-07T11:57:25;5.13;;;2.30;;
24273;SDS011;12392;42.678;23.380;2023-05-07T11:59:55;2.70;;;2.20;;
24273;SDS011;12392;42.678;23.380;2023-05-07T12:02:21;2.50;;;2.30;;
24273;SDS011;12392;42.678;23.380;2023-05-07T12:04:49;2.80;;;2.50;;
24273;SDS011;12392;42.678;23.380;2023-05-07T12:07:18;4.45;;;2.35;;
24273;SDS011;12392;42.678;23.380;2023-05-07T12:09:44;3.30;;;2.72;;
24273;SDS011;12392;42.678;23.380;2023-05-07T12:12:10;5.03;;;2.78;;
24273;SDS011;12392;42.678;23.380;2023-05-07T12:14:40;9.07;;;2.75;;
24273;SDS011;12392;42.678;23.380;2023-05-07T12:17:09;4.63;;;2.65;;
24273;SDS011;12392;42.678;23.380;2023-05-07T12:19:36;2.85;;;2.55;;
24273;SDS011;12392;42.678;23.380;2023-05-07T12:22:05;3.47;;;2.70;;
24273;SDS011;12392;42.678;23.380;2023-05-07T12:27:28;4.60;;;3.33;;
24273;SDS011;12392;42.678;23.380;2023-05-07T12:29:54;4.50;;;3.05;;
24273;SDS011;12392;42.678;23.380;2023-05-07T12:32:20;8.93;;;2.88;;
24273;SDS011;12392;42.678;23.380;2023-05-07T12:34:46;2.33;;;2.13;;
24273;SDS011;12392;42.678;23.380;2023-05-07T12:37:15;4.90;;;2.25;;
24273;SDS011;12392;42.678;23.380;2023-05-07T12:39:47;2.75;;;2.50;;
24273;SDS011;12392;42.678;23.380;2023-05-07T12:42:16;3.22;;;2.22;;
24273;SDS011;12392;42.678;23.380;2023-05-07T12:44:48;4.88;;;2.28;;
24273;SDS011;12392;42.678;23.380;2023-05-07T12:47:14;2.50;;;2.20;;
24273;SDS011;12392;42.678;23.380;2023-05-07T12:49:40;4.05;;;2.15;;
24273;SDS011;12392;42.678;23.380;2023-05-07T12:52:06;2.85;;;2.58;;
24273;SDS011;12392;42.678;23.380;2023-05-07T12:54:33;3.00;;;2.35;;
24273;SDS011;12392;42.678;23.380;2023-05-07T12:57:06;4.00;;;2.03;;
24273;SDS011;12392;42.678;23.380;2023-05-07T13:02:02;3.05;;;2.03;;
24273;SDS011;12392;42.678;23.380;2023-05-07T13:04:28;2.75;;;1.77;;
24273;SDS011;12392;42.678;23.380;2023-05-07T13:06:53;2.63;;;1.80;;
24273;SDS011;12392;42.678;23.380;2023-05-07T13:09:19;4.72;;;2.78;;
24273;SDS011;12392;42.678;23.380;2023-05-07T13:11:45;2.33;;;2.10;;
24273;SDS011;12392;42.678;23.380;2023-05-07T13:14:11;2.90;;;1.90;;
24273;SDS011;12392;42.678;23.380;2023-05-07T13:16:37;2.25;;;2.00;;
24273;SDS011;12392;42.678;23.380;2023-05-07T13:19:03;3.35;;;1.67;;
24273;SDS011;12392;42.678;23.380;2023-05-07T13:21:29;2.08;;;1.90;;
24273;SDS011;12392;42.678;23.380;2023-05-07T13:23:56;1.70;;;1.60;;
24273;SDS011;12392;42.678;23.380;2023-05-07T13:26:23;2.30;;;2.03;;
24273;SDS011;12392;42.678;23.380;2023-05-07T13:28:49;1.55;;;1.45;;
24273;SDS011;12392;42.678;23.380;2023-05-07T13:31:15;3.60;;;1.85;;
24273;SDS011;12392;42.678;23.380;2023-05-07T13:33:45;3.75;;;1.95;;
24273;SDS011;12392;42.678;23.380;2023-05-07T13:36:11;2.20;;;2.00;;
24273;SDS011;12392;42.678;23.380;2023-05-07T13:38:37;2.80;;;1.95;;
24273;SDS011;12392;42.678;23.380;2023-05-07T13:41:04;1.63;;;1.52;;
24273;SDS011;12392;42.678;23.380;2023-05-07T13:43:29;3.30;;;1.88;;
24273;SDS011;12392;42.678;23.380;2023-05-07T13:45:56;3.22;;;1.92;;
24273;SDS011;12392;42.678;23.380;2023-05-07T13:48:22;1.88;;;1.70;;
24273;SDS011;12392;42.678;23.380;2023-05-07T13:50:48;4.70;;;2.40;;
24273;SDS011;12392;42.678;23.380;2023-05-07T13:53:13;4.47;;;1.60;;
24273;SDS011;12392;42.678;23.380;2023-05-07T13:55:42;2.75;;;1.88;;
24273;SDS011;12392;42.678;23.380;2023-05-07T13:58:08;2.40;;;2.15;;
24273;SDS011;12392;42.678;23.380;2023-05-07T14:00:34;3.33;;;1.85;;
24273;SDS011;12392;42.678;23.380;2023-05-07T14:03:00;1.92;;;1.67;;
24273;SDS011;12392;42.678;23.380;2023-05-07T14:05:26;2.80;;;2.00;;
24273;SDS011;12392;42.678;23.380;2023-05-07T14:07:53;3.35;;;1.83;;
24273;SDS011;12392;42.678;23.380;2023-05-07T14:10:22;2.13;;;1.92;;
24273;SDS011;12392;42.678;23.380;2023-05-07T14:12:47;1.60;;;1.45;;
24273;SDS011;12392;42.678;23.380;2023-05-07T14:15:13;2.72;;;1.90;;
24273;SDS011;12392;42.678;23.380;2023-05-07T14:17:39;2.22;;;2.00;;
24273;SDS011;12392;42.678;23.380;2023-05-07T14:20:05;2.38;;;2.17;;
24273;SDS011;12392;42.678;23.380;2023-05-07T14:22:31;6.95;;;1.80;;
24273;SDS011;12392;42.678;23.380;2023-05-07T14:24:57;2.55;;;2.08;;
24273;SDS011;12392;42.678;23.380;2023-05-07T14:27:23;2.97;;;2.08;;
24273;SDS011;12392;42.678;23.380;2023-05-07T14:29:48;1.80;;;1.60;;
24273;SDS011;12392;42.678;23.380;2023-05-07T14:32:19;2.22;;;2.03;;
24273;SDS011;12392;42.678;23.380;2023-05-07T14:34:45;4.88;;;1.63;;
24273;SDS011;12392;42.678;23.380;2023-05-07T14:37:11;3.47;;;1.85;;
24273;SDS011;12392;42.678;23.380;2023-05-07T14:39:37;2.65;;;1.90;;
24273;SDS011;12392;42.678;23.380;2023-05-07T14:42:03;3.20;;;2.40;;
24273;SDS011;12392;42.678;23.380;2023-05-07T14:44:29;2.95;;;1.73;;
24273;SDS011;12392;42.678;23.380;2023-05-07T14:46:56;3.05;;;1.90;;
24273;SDS011;12392;42.678;23.380;2023-05-07T14:49:21;2.88;;;2.13;;
24273;SDS011;12392;42.678;23.380;2023-05-07T14:51:47;2.65;;;2.08;;